createdAt,value
2022-09-07T03:36:14.331Z,100
2022-09-07T03:41:16.259Z,100
2022-09-07T03:46:18.679Z,100
2022-09-07T03:51:20.836Z,100
2022-09-07T03:56:24.207Z,100
2022-09-07T04:01:26.153Z,100
2022-09-07T04:06:28.654Z,100
2022-09-07T04:11:30.300Z,100
2022-09-07T04:16:32.334Z,100
2022-09-07T04:21:34.188Z,100
2022-09-07T04:26:35.986Z,100
2022-09-07T04:31:37.903Z,100
2022-09-07T04:36:39.533Z,100
2022-09-07T04:41:41.449Z,100
2022-09-07T04:46:43.128Z,100
2022-09-07T04:51:44.732Z,100
2022-09-07T04:56:46.367Z,100
2022-09-07T05:01:48.467Z,100
2022-09-07T05:06:50.106Z,100
2022-09-07T05:11:52.165Z,100
2022-09-07T05:16:54.206Z,100
2022-09-07T05:21:56.547Z,100
2022-09-07T05:26:58.165Z,100
2022-09-07T05:31:59.810Z,100
2022-09-07T05:37:01.491Z,100
2022-09-07T05:42:03.446Z,100
2022-09-07T05:47:05.332Z,100
2022-09-07T05:52:06.980Z,100
2022-09-07T05:57:10.771Z,100
2022-09-07T06:02:13.146Z,100
2022-09-07T06:12:20.891Z,100
2022-09-07T06:17:22.571Z,95.88
2022-09-07T06:22:30.889Z,95.88
2022-09-07T06:27:33.110Z,91.34
2022-09-07T06:37:42.021Z,95.08
2022-09-07T06:42:43.636Z,88.03
2022-09-07T06:47:45.273Z,88.03
2022-09-07T06:57:52.692Z,90.81
2022-09-07T07:02:54.519Z,90.6
2022-09-07T07:07:56.550Z,90.6
2022-09-07T07:12:59.010Z,84.62
2022-09-07T07:23:07.251Z,84.44
2022-09-07T07:33:15.243Z,84.03
2022-09-07T07:43:22.893Z,80.77
2022-09-07T07:58:33.317Z,76.51
2022-09-07T08:03:35.749Z,76.51
2022-09-07T08:08:37.566Z,75.39
2022-09-07T08:13:40.796Z,75.39
2022-09-07T08:18:47.261Z,74.1
2022-09-07T08:23:48.921Z,74.1
2022-09-07T08:28:50.727Z,69.49
2022-09-07T08:33:52.309Z,69.49
2022-09-07T08:38:53.893Z,69.51
2022-09-07T08:43:58.806Z,69.51
2022-09-07T08:49:01.891Z,67.47
2022-09-07T08:54:04.931Z,67.47
2022-09-07T09:04:17.747Z,67.95
2022-09-07T09:09:28.362Z,65.4
2022-09-07T09:14:34.516Z,58.83
2022-09-07T09:24:45.941Z,52.69
2022-09-07T09:29:47.865Z,52.69
2022-09-07T09:45:04.022Z,52.01
2022-09-07T10:05:27.725Z,45.78
2022-09-07T10:10:29.591Z,45.78
2022-09-07T10:15:40.375Z,50.36
2022-09-07T10:20:41.782Z,47.45
2022-09-07T10:25:43.408Z,47.45
2022-09-07T10:35:59.220Z,46.79
2022-09-07T10:41:03.222Z,51.93
2022-09-07T10:51:16.719Z,46.82
2022-09-07T10:56:21.622Z,46.82
2022-09-07T11:06:32.054Z,47.59
2022-09-07T11:26:55.679Z,45.53
2022-09-07T11:32:01.206Z,45.53
2022-09-07T11:37:07.401Z,44.26
2022-09-07T11:47:23.199Z,46.93
2022-09-07T11:52:29.191Z,46.93
2022-09-07T12:07:54.920Z,44.79
2022-09-07T12:18:16.320Z,44.09
2022-09-07T12:23:21.578Z,44.14
2022-09-07T12:33:32.492Z,40.11
2022-09-07T12:48:55.635Z,45.44
2022-09-07T13:09:29.645Z,39.93
2022-09-07T13:14:35.133Z,43.05
2022-09-07T13:24:48.439Z,41.58
2022-09-07T13:29:53.462Z,39.15
2022-09-07T13:35:03.698Z,39.15
2022-09-07T13:40:09.657Z,44.72
2022-09-07T13:50:21.895Z,37.98
2022-09-07T13:55:26.585Z,37.98
2022-09-07T14:00:29.119Z,43.32
2022-09-07T14:05:30.843Z,43.32
2022-09-07T14:10:32.449Z,42.12
2022-09-07T14:15:35.903Z,42.12
2022-09-07T14:20:39.900Z,44.43
2022-09-07T14:30:49.658Z,46.12
2022-09-07T14:35:51.625Z,44.34
2022-09-07T14:40:54.319Z,44.34
2022-09-07T14:56:08.612Z,48.35
2022-09-07T15:16:28.958Z,49.16
2022-09-07T15:21:33.076Z,49.16
2022-09-07T15:36:50.998Z,44.35
2022-09-07T15:41:53.428Z,44.48
2022-09-07T15:52:06.569Z,46.89
2022-09-07T16:07:20.601Z,50.24
2022-09-07T16:27:40.648Z,51.15
2022-09-07T16:32:45.801Z,54.26
2022-09-07T16:42:53.741Z,54.24
2022-09-07T16:47:56.003Z,56.97
2022-09-07T16:52:58.467Z,56.97
2022-09-07T17:03:05.874Z,57.19
2022-09-07T17:08:07.725Z,58.93
2022-09-07T17:13:09.821Z,58.93
2022-09-07T17:18:11.403Z,59.15
2022-09-07T17:23:13.101Z,59.15
2022-09-07T17:28:15.670Z,63.7
2022-09-07T17:33:17.435Z,63.7
2022-09-07T17:48:31.510Z,65.83
2022-09-07T17:53:35.234Z,68.42
2022-09-07T17:58:37.732Z,68.42
2022-09-07T18:03:40.841Z,66.45
2022-09-07T18:08:44.322Z,66.45
2022-09-07T18:13:51.198Z,70.79
2022-09-07T18:18:54.406Z,70.79
2022-09-07T18:23:59.522Z,74.59
2022-09-07T18:34:08.243Z,69.92
2022-09-07T18:39:11.182Z,69.92
2022-09-07T18:49:19.793Z,71.91
2022-09-07T18:54:22.409Z,73.5
2022-09-07T18:59:25.044Z,71.04
2022-09-07T19:09:33.792Z,72.54
2022-09-07T19:14:36.611Z,72.54
2022-09-07T19:19:41.258Z,73.28
2022-09-07T19:24:43.681Z,73.28
2022-09-07T19:29:46.446Z,76.67
2022-09-07T19:34:49.185Z,76.67
2022-09-07T19:39:52.230Z,76.21
2022-09-07T19:44:55.886Z,76.21
2022-09-07T19:49:59.070Z,78.73
2022-09-07T19:55:04.612Z,78.73
2022-09-07T20:00:08.273Z,81.39
2022-09-07T20:05:11.665Z,80.31
2022-09-07T20:10:14.592Z,80.31
2022-09-07T20:15:17.318Z,80.76
2022-09-07T20:20:19.939Z,80.76
2022-09-07T20:25:22.246Z,78.7
2022-09-07T20:30:24.179Z,78.7
2022-09-07T20:35:26.084Z,76.33
2022-09-07T20:40:27.940Z,76.33
2022-09-07T20:45:32.211Z,78.47
2022-09-07T20:50:33.852Z,78.47
2022-09-07T20:55:35.487Z,78.47
2022-09-07T21:00:37.332Z,78.47
2022-09-07T21:05:39.121Z,78.47
2022-09-07T21:10:41.463Z,78.47
2022-09-07T21:15:43.757Z,78.47
2022-09-07T21:25:51.107Z,78.47
2022-09-07T21:30:55.296Z,78.47
2022-09-07T21:36:02.425Z,78.47
2022-09-07T21:41:05.112Z,78.47
